American Phoenix — WDG2754 — position and weather

sailwx.info

Track history (hours):
 
Tides and Currents Weather Stations Pressure Air Temp Water Temp Dewpoint Dewpoint Depression Visibility Wind Speed Wind Dir Waves Ship Positions

American Phoenix

Owner: Seabulk Tankers, Inc., Fort Lauderdale, FL. More information available from US FCC via Universal Licensing System.

Last reported at 2018-Jan-10 22:32 UTC. Time now 2018-Jan-19 15:19 UTC.
Position N 27°33' W 090°06'.
Warning: this ship's position is 8 days out of date.

Length 184 m; draft 10 m.

Type: Ship. MMSI: 367518920.

Date/timePositionNaut miles runAvg speedWind from/ knotsBaromVisibWave heightAir tempDewpointWater temp
2018-Jan-10 22:32N 27°33' W 090°06'115.0
2018-Jan-10 22:30N 27°32' W 090°07'815.2
2018-Jan-10 21:59N 27°26' W 090°11'815.3
2018-Jan-10 21:30N 27°20' W 090°16'814.8
2018-Jan-10 20:58N 27°12' W 090°20'1312.8
2018-Jan-10 19:57N 27°01' W 090°26'614.1
2018-Jan-10 19:31N 27°03' W 090°32'714.1
2018-Jan-10 19:00N 27°06' W 090°39'814.1
2018-Jan-10 18:28N 27°09' W 090°47'714.4
2018-Jan-10 17:58N 27°12' W 090°55'714.4
2018-Jan-10 17:27N 27°15' W 091°02'714.3
2018-Jan-10 16:59N 27°18' W 091°09'814.3
2018-Jan-10 16:27N 27°21' W 091°17'714.3
2018-Jan-10 15:57N 27°24' W 091°24'12213.9
2018-Jan-10 07:10N 28°38' W 093°15'514.0
2018-Jan-10 06:50N 28°42' W 093°18'514.0
2018-Jan-10 06:28N 28°46' W 093°21'714.0
2018-Jan-10 05:58N 28°52' W 093°25'613.9
2018-Jan-10 05:30N 28°57' W 093°30'1413.7
2018-Jan-10 04:30N 29°07' W 093°39'  
2018-Jan-06 19:33N 29°59' W 093°54'1 7.6
2018-Jan-06 19:21N 29°59' W 093°52'13 6.4
2018-Jan-06 17:19N 29°46' W 093°55'15 9.4
2018-Jan-06 15:44N 29°34' W 093°45'0 0.7
2018-Jan-06 15:30N 29°34' W 093°45'2 3.5
2018-Jan-06 14:58N 29°34' W 093°43'0 0.1
2018-Jan-06 14:28N 29°34' W 093°43'0 0.0
2018-Jan-06 13:58N 29°34' W 093°43'0 0.0
2018-Jan-06 13:28N 29°34' W 093°43'0 0.0
2018-Jan-06 12:58N 29°33' W 093°43'0 0.0
2018-Jan-06 09:04N 29°34' W 093°43'0 0.1
2018-Jan-06 08:58N 29°34' W 093°43'  
Track history (hours):
 
Tides and Currents Weather Stations Pressure Air Temp Water Temp Dewpoint Dewpoint Depression Visibility Wind Speed Wind Dir Waves Ship Positions

American Phoenix

Owner: Seabulk Tankers, Inc., Fort Lauderdale, FL. More information available from US FCC via Universal Licensing System.

Last reported at 2018-Jan-10 22:32 UTC. Time now 2018-Jan-19 15:19 UTC.
Position N 27°33' W 090°06'.
Warning: this ship's position is 8 days out of date.

Length 184 m; draft 10 m.

Type: Ship. MMSI: 367518920.

Date/timePositionNaut miles runAvg speedWind from/ knotsBaromVisibWave heightAir tempDewpointWater temp
2018-Jan-10 22:32N 27°33' W 090°06'115.0
2018-Jan-10 22:30N 27°32' W 090°07'815.2
2018-Jan-10 21:59N 27°26' W 090°11'815.3
2018-Jan-10 21:30N 27°20' W 090°16'814.8
2018-Jan-10 20:58N 27°12' W 090°20'1312.8
2018-Jan-10 19:57N 27°01' W 090°26'614.1
2018-Jan-10 19:31N 27°03' W 090°32'714.1
2018-Jan-10 19:00N 27°06' W 090°39'814.1
2018-Jan-10 18:28N 27°09' W 090°47'714.4
2018-Jan-10 17:58N 27°12' W 090°55'714.4
2018-Jan-10 17:27N 27°15' W 091°02'714.3
2018-Jan-10 16:59N 27°18' W 091°09'814.3
2018-Jan-10 16:27N 27°21' W 091°17'714.3
2018-Jan-10 15:57N 27°24' W 091°24'12213.9
2018-Jan-10 07:10N 28°38' W 093°15'514.0
2018-Jan-10 06:50N 28°42' W 093°18'514.0
2018-Jan-10 06:28N 28°46' W 093°21'714.0
2018-Jan-10 05:58N 28°52' W 093°25'613.9
2018-Jan-10 05:30N 28°57' W 093°30'1413.7
2018-Jan-10 04:30N 29°07' W 093°39'  
2018-Jan-06 19:33N 29°59' W 093°54'1 7.6
2018-Jan-06 19:21N 29°59' W 093°52'13 6.4
2018-Jan-06 17:19N 29°46' W 093°55'15 9.4
2018-Jan-06 15:44N 29°34' W 093°45'0 0.7
2018-Jan-06 15:30N 29°34' W 093°45'2 3.5
2018-Jan-06 14:58N 29°34' W 093°43'0 0.1
2018-Jan-06 14:28N 29°34' W 093°43'0 0.0
2018-Jan-06 13:58N 29°34' W 093°43'0 0.0
2018-Jan-06 13:28N 29°34' W 093°43'0 0.0
2018-Jan-06 12:58N 29°33' W 093°43'0 0.0
2018-Jan-06 09:04N 29°34' W 093°43'0 0.1
2018-Jan-06 08:58N 29°34' W 093°43'  

Dump ship's entire track history